createdAt,value
2022-11-14T00:05:45.833Z,71.65
2022-11-14T00:11:24.947Z,71.67
2022-11-14T00:17:04.888Z,71.73
2022-11-14T00:22:43.907Z,71.60
2022-11-14T00:28:23.234Z,71.78
2022-11-14T00:34:02.574Z,71.72
2022-11-14T00:39:41.762Z,71.80
2022-11-14T00:45:21.153Z,71.89
2022-11-14T00:51:00.582Z,71.66
2022-11-14T00:56:39.764Z,71.96
2022-11-14T01:02:18.940Z,71.99
2022-11-14T01:07:58.490Z,72.22
2022-11-14T01:13:37.781Z,71.69
2022-11-14T01:19:17.012Z,71.90
2022-11-14T01:24:58.437Z,71.47
2022-11-14T01:30:38.349Z,71.68
2022-11-14T01:36:17.813Z,71.39
2022-11-14T01:41:56.703Z,71.49
2022-11-14T01:47:35.885Z,71.24
2022-11-14T01:53:15.560Z,71.62
2022-11-14T01:58:58.396Z,71.78
2022-11-14T02:04:43.827Z,71.62
2022-11-14T02:10:23.069Z,71.03
2022-11-14T02:16:02.516Z,71.13
2022-11-14T02:21:42.201Z,71.41
2022-11-14T02:27:21.538Z,71.58
2022-11-14T02:33:16.319Z,71.37
2022-11-14T02:38:55.533Z,71.54
2022-11-14T02:44:34.918Z,71.51
2022-11-14T02:50:14.214Z,71.70
2022-11-14T02:55:53.393Z,71.73
2022-11-14T03:01:32.790Z,71.62
2022-11-14T03:07:12.679Z,71.77
2022-11-14T03:12:55.943Z,71.99
2022-11-14T03:18:35.590Z,71.77
2022-11-14T03:24:14.945Z,71.96
2022-11-14T03:29:54.514Z,72.00
2022-11-14T03:35:33.555Z,71.96
2022-11-14T03:41:12.651Z,72.08
2022-11-14T03:46:52.565Z,72.02
2022-11-14T03:52:31.665Z,72.18
2022-11-14T03:58:10.936Z,72.22
2022-11-14T04:03:50.332Z,72.22
2022-11-14T04:09:29.635Z,72.03
2022-11-14T04:15:09.424Z,72.19
2022-11-14T04:20:48.725Z,71.88
2022-11-14T04:26:28.120Z,72.08
2022-11-14T04:32:07.656Z,72.27
2022-11-14T04:37:46.787Z,72.28
2022-11-14T04:43:25.883Z,72.32
2022-11-14T04:49:05.176Z,72.68
2022-11-14T04:54:45.583Z,72.53
2022-11-14T05:00:25.218Z,72.59
2022-11-14T05:06:04.614Z,72.49
2022-11-14T05:11:44.117Z,72.59
2022-11-14T05:17:23.665Z,72.62
2022-11-14T05:23:02.718Z,72.81
2022-11-14T05:28:42.083Z,72.71
2022-11-14T05:34:21.171Z,72.91
2022-11-14T05:40:00.781Z,73.01
2022-11-14T05:45:40.094Z,73.10
2022-11-14T05:51:19.571Z,73.03
2022-11-14T05:56:58.972Z,73.12
2022-11-14T06:02:38.049Z,73.50
2022-11-14T06:08:17.305Z,73.32
2022-11-14T06:13:56.624Z,73.53
2022-11-14T06:19:35.951Z,73.41
2022-11-14T06:25:15.158Z,73.40
2022-11-14T06:30:58.906Z,73.56
2022-11-14T06:36:38.419Z,73.62
2022-11-14T06:42:18.027Z,73.33
2022-11-14T06:48:00.568Z,72.65
2022-11-14T06:53:40.413Z,71.87
2022-11-14T06:59:19.807Z,71.82
2022-11-14T07:04:59.144Z,72.54
2022-11-14T07:10:38.487Z,72.67
2022-11-14T07:16:17.917Z,73.24
2022-11-14T07:21:57.313Z,73.33
2022-11-14T07:27:36.590Z,72.89
2022-11-14T07:33:15.777Z,72.65
2022-11-14T07:38:54.940Z,73.01
2022-11-14T07:44:34.190Z,73.07
2022-11-14T07:50:17.671Z,73.41
2022-11-14T07:56:04.540Z,72.89
2022-11-14T08:01:44.122Z,72.72
2022-11-14T08:07:23.289Z,72.40
2022-11-14T08:13:30.146Z,72.57
2022-11-14T08:19:03.870Z,72.60
2022-11-14T08:24:43.162Z,72.53
2022-11-14T08:30:22.401Z,72.55
2022-11-14T08:36:05.650Z,72.35
2022-11-14T08:41:44.809Z,72.58
2022-11-14T08:47:24.193Z,72.54
2022-11-14T08:53:03.540Z,72.32
2022-11-14T08:58:42.684Z,72.43
2022-11-14T09:04:22.152Z,72.47
2022-11-14T09:10:01.849Z,72.41
2022-11-14T09:15:41.885Z,72.83
2022-11-14T09:21:21.375Z,72.58
2022-11-14T09:27:00.554Z,72.10
2022-11-14T09:32:39.938Z,72.17
2022-11-14T09:38:19.295Z,71.92
2022-11-14T09:44:20.547Z,72.18
2022-11-14T09:50:11.528Z,71.79
2022-11-14T09:55:52.097Z,72.33
2022-11-14T10:01:41.015Z,71.86
2022-11-14T10:07:20.827Z,71.81
2022-11-14T10:13:11.159Z,71.61
2022-11-14T10:18:50.619Z,71.29
2022-11-14T10:24:29.654Z,71.62
2022-11-14T10:30:11.718Z,71.28
2022-11-14T10:36:06.539Z,71.22
2022-11-14T10:41:58.016Z,71.10
2022-11-14T10:47:41.282Z,70.76
2022-11-14T10:53:39.303Z,70.95
2022-11-14T10:59:19.336Z,70.14
2022-11-14T11:05:11.815Z,70.85
2022-11-14T11:11:15.526Z,70.69
2022-11-14T11:17:14.877Z,70.62
2022-11-14T11:23:09.510Z,70.22
2022-11-14T11:29:02.371Z,70.16
2022-11-14T11:34:41.911Z,70.45
2022-11-14T11:40:23.864Z,70.01
2022-11-14T11:46:05.098Z,69.86
2022-11-14T11:51:45.557Z,69.89
2022-11-14T11:57:29.725Z,69.80
2022-11-14T12:03:13.399Z,69.63
2022-11-14T12:08:53.007Z,69.29
2022-11-14T12:14:49.248Z,69.86
2022-11-14T12:20:47.214Z,69.10
2022-11-14T12:26:45.226Z,69.63
2022-11-14T12:32:44.538Z,69.21
2022-11-14T12:38:24.071Z,69.30
2022-11-14T12:44:22.533Z,68.94
2022-11-14T12:50:02.671Z,69.25
2022-11-14T12:55:41.995Z,69.06
2022-11-14T13:01:28.453Z,69.02
2022-11-14T13:07:32.809Z,69.04
2022-11-14T13:13:33.556Z,69.11
2022-11-14T13:19:37.645Z,69.10
2022-11-14T13:25:18.828Z,69.09
2022-11-14T13:31:18.866Z,69.19
2022-11-14T13:36:58.077Z,69.17
2022-11-14T13:42:49.621Z,68.90
2022-11-14T13:48:38.005Z,69.01
2022-11-14T13:54:18.493Z,68.98
2022-11-14T14:00:18.411Z,68.98
2022-11-14T14:06:20.260Z,68.81
2022-11-14T14:12:19.781Z,69.03
2022-11-14T14:18:12.547Z,68.81
2022-11-14T14:24:01.015Z,68.65
2022-11-14T14:29:43.329Z,68.70
2022-11-14T14:35:27.369Z,68.97
2022-11-14T14:41:06.985Z,69.01
2022-11-14T14:46:46.192Z,68.89
2022-11-14T14:52:33.129Z,68.82
2022-11-14T14:58:30.739Z,69.11
2022-11-14T15:04:13.549Z,69.15
2022-11-14T15:09:54.159Z,69.09
2022-11-14T15:15:33.941Z,69.04
2022-11-14T15:21:16.668Z,69.59
2022-11-14T15:26:56.114Z,69.36
2022-11-14T15:32:35.638Z,69.33
2022-11-14T15:38:42.629Z,69.40
2022-11-14T15:44:35.000Z,69.70
2022-11-14T15:50:14.250Z,69.62
2022-11-14T15:55:53.571Z,70.17
2022-11-14T16:01:33.114Z,72.79
2022-11-14T16:07:13.808Z,70.56
2022-11-14T16:12:54.223Z,69.63
2022-11-14T16:18:33.649Z,69.90
2022-11-14T16:24:17.720Z,69.50
2022-11-14T16:29:57.199Z,69.50
2022-11-14T16:35:36.803Z,69.77
2022-11-14T16:41:17.422Z,69.86
2022-11-14T16:46:56.849Z,69.69
2022-11-14T16:52:37.367Z,70.20
2022-11-14T16:58:16.941Z,69.94
2022-11-14T17:04:02.633Z,69.81
2022-11-14T17:09:41.953Z,69.77
2022-11-14T17:15:21.562Z,69.88
2022-11-14T17:21:04.045Z,69.87
2022-11-14T17:26:43.333Z,70.05
2022-11-14T17:32:22.602Z,70.54
2022-11-14T17:38:02.304Z,70.40
2022-11-14T17:43:42.160Z,70.04
2022-11-14T17:49:21.921Z,70.35
2022-11-14T17:55:01.112Z,70.70
2022-11-14T18:00:40.841Z,71.00
2022-11-14T18:06:20.774Z,70.32
2022-11-14T18:11:59.818Z,70.00
2022-11-14T18:17:39.341Z,69.77
2022-11-14T18:23:18.820Z,69.72
2022-11-14T18:28:58.889Z,70.13
2022-11-14T18:34:38.611Z,70.04
2022-11-14T18:40:18.104Z,69.42
2022-11-14T18:46:08.155Z,69.71
2022-11-14T18:51:49.141Z,69.19
2022-11-14T18:57:28.782Z,69.08
2022-11-14T19:03:08.959Z,69.29
2022-11-14T19:08:48.849Z,69.95
2022-11-14T19:14:28.552Z,69.34
2022-11-14T19:20:13.952Z,69.76
2022-11-14T19:25:58.581Z,69.73
2022-11-14T19:31:37.823Z,69.35
2022-11-14T19:37:17.350Z,69.80
2022-11-14T19:43:00.369Z,69.91
2022-11-14T19:48:42.650Z,70.45
2022-11-14T19:54:23.244Z,69.86
2022-11-14T20:00:03.532Z,69.67
2022-11-14T20:05:43.071Z,70.23
2022-11-14T20:11:23.024Z,70.73
2022-11-14T20:17:02.488Z,70.68
2022-11-14T20:22:41.665Z,70.69
2022-11-14T20:28:21.286Z,70.48
2022-11-14T20:34:00.828Z,70.64
2022-11-14T20:39:40.087Z,70.56
2022-11-14T20:45:19.726Z,69.73
2022-11-14T20:51:08.592Z,69.08
2022-11-14T20:56:47.931Z,70.05
2022-11-14T21:02:27.652Z,69.00
2022-11-14T21:08:07.654Z,69.01
2022-11-14T21:13:59.166Z,69.18
2022-11-14T21:19:39.027Z,69.26
2022-11-14T21:25:30.528Z,69.49
2022-11-14T21:31:31.667Z,69.68
2022-11-14T21:37:11.243Z,69.24
2022-11-14T21:42:50.933Z,69.02
2022-11-14T21:48:38.827Z,68.85
2022-11-14T21:54:23.603Z,68.73
2022-11-14T22:00:03.170Z,68.94
2022-11-14T22:05:42.586Z,69.78
2022-11-14T22:11:22.329Z,69.19
2022-11-14T22:17:01.429Z,68.10
2022-11-14T22:22:54.850Z,68.91
2022-11-14T22:28:34.546Z,68.51
2022-11-14T22:34:13.681Z,69.13
2022-11-14T22:39:53.244Z,68.93
2022-11-14T22:45:38.764Z,68.84
2022-11-14T22:51:25.864Z,69.01
2022-11-14T22:57:05.255Z,68.97
2022-11-14T23:03:03.698Z,69.14
2022-11-14T23:09:00.341Z,68.78
2022-11-14T23:14:39.515Z,68.88
2022-11-14T23:20:18.662Z,69.22
2022-11-14T23:26:02.255Z,69.66
2022-11-14T23:31:41.549Z,69.53
2022-11-14T23:37:20.900Z,69.15
2022-11-14T23:43:00.358Z,69.58
2022-11-14T23:48:40.053Z,69.29
2022-11-14T23:54:19.708Z,69.42
2022-11-14T23:59:59.381Z,69.71
